Aérodrome :
LOGIN :

S'inscrire | Disclaimer

   EN    FR    IT 

 










Légende :    VFR   VFR Marginal   IFR   IFR Intensif   IFR Très Intensif
Visi : 
Plafond : 
>= 8 km
>= 3000ft
5 à 8 km
1000 à 3000 ft
1500m à 5 km
500 à 1000 ft
800 à 1500m
200 à 500 ft
< 800m
< 200 ft
Symboles :   Orages  Brouillard  Fortes neiges  Fortes précipitations  Vent > 20 kt
SIGMETs :   Divers  Orages  Givrage  Turbulence  Onde Orograph.  Cendres Volcan.







- Altitude de l'aérodrome : 33 ft
- Code IATA : MHZ


EGUN - RAF Mildenhall

DERNIER METAR :
  • 160256Z AUTO 20005KT 9999 CLR 10/10 A2995 RMK AO2 SLP145 T00990099 $

METARs EXPIRÉS :
  • 160156Z AUTO 19004KT 9999 CLR 10/10 A2995 RMK AO2 SLP145 T01030103 .
  • 160056Z AUTO 20006KT 9999 M 11/11 A2994 RMK AO2 SLP142 T01110111 .

TAF TAF EGUN
Valide du 15 à 12h jusqu'au 16 à 18h UTC


151200Z 1512/1618 19012G20KT 9999 BKN030 QNH2987INS
TEMPO 1515/1520 8000 -RA BKN015
BECMG 1519/1520 20012KT 9999 SCT020 QNH2990INS
BECMG 1607/1608 21015G25KT 8000 -RA BKN015 BKN050 QNH3000INS TX18/1513Z TN09/1604Z LAST NO AMDS AFT 1515 NEXT 1702
Pas de NOTAMs connus pour ce terrain.



MET'MAP, la Météo Aéronautique d'un coup d'oeil ! - Copyright ORBIFLY Décembre 2007 - Disclaimer

ORBIFLY MET'MAP TEAM :

Programmation & Développement : Alexandra Zaïnal
Conception & Développement : Baudouin d'Aumeries
Co-Programmation & Développement : Marc-Olivier Méhu
Soutien technique & logistique : Manuel Goepfert

Contact : metmap@orbifly.com




SOURCES & CREDITS :

   NOAA